sensor_id;sensor_type;location;lat;lon;timestamp;P1;durP1;ratioP1;P2;durP2;ratioP2
32946;SDS011;54465;51.230;22.504;2023-05-18T00:01:54;5.15;;;2.35;;
32946;SDS011;54465;51.230;22.504;2023-05-18T00:06:54;5.35;;;2.55;;
32946;SDS011;54465;51.230;22.504;2023-05-18T00:11:58;7.10;;;3.20;;
32946;SDS011;54465;51.230;22.504;2023-05-18T00:16:59;6.85;;;3.75;;
32946;SDS011;54465;51.230;22.504;2023-05-18T00:22:00;5.95;;;3.22;;
32946;SDS011;54465;51.230;22.504;2023-05-18T00:27:01;6.22;;;3.20;;
32946;SDS011;54465;51.230;22.504;2023-05-18T00:32:01;9.95;;;3.40;;
32946;SDS011;54465;51.230;22.504;2023-05-18T00:37:02;6.78;;;2.80;;
32946;SDS011;54465;51.230;22.504;2023-05-18T00:42:03;4.03;;;2.67;;
32946;SDS011;54465;51.230;22.504;2023-05-18T00:47:04;9.82;;;3.10;;
32946;SDS011;54465;51.230;22.504;2023-05-18T00:52:04;6.97;;;2.63;;
32946;SDS011;54465;51.230;22.504;2023-05-18T00:57:05;13.48;;;2.97;;
32946;SDS011;54465;51.230;22.504;2023-05-18T01:02:05;4.85;;;2.55;;
32946;SDS011;54465;51.230;22.504;2023-05-18T01:07:08;7.30;;;2.38;;
32946;SDS011;54465;51.230;22.504;2023-05-18T01:12:11;8.88;;;2.45;;
32946;SDS011;54465;51.230;22.504;2023-05-18T01:17:56;7.03;;;2.53;;
32946;SDS011;54465;51.230;22.504;2023-05-18T01:23:11;9.27;;;3.45;;
32946;SDS011;54465;51.230;22.504;2023-05-18T01:28:34;8.98;;;2.58;;
32946;SDS011;54465;51.230;22.504;2023-05-18T01:33:35;8.13;;;2.80;;
32946;SDS011;54465;51.230;22.504;2023-05-18T01:38:35;5.82;;;1.83;;
32946;SDS011;54465;51.230;22.504;2023-05-18T01:43:39;6.72;;;1.52;;
32946;SDS011;54465;51.230;22.504;2023-05-18T01:48:44;8.27;;;2.50;;
32946;SDS011;54465;51.230;22.504;2023-05-18T01:53:50;4.78;;;2.22;;
32946;SDS011;54465;51.230;22.504;2023-05-18T01:58:54;6.53;;;2.15;;
32946;SDS011;54465;51.230;22.504;2023-05-18T02:03:55;5.80;;;1.85;;
32946;SDS011;54465;51.230;22.504;2023-05-18T02:08:55;4.82;;;2.10;;
32946;SDS011;54465;51.230;22.504;2023-05-18T02:13:56;7.40;;;2.35;;
32946;SDS011;54465;51.230;22.504;2023-05-18T02:18:56;7.90;;;2.50;;
32946;SDS011;54465;51.230;22.504;2023-05-18T02:23:59;7.82;;;2.28;;
32946;SDS011;54465;51.230;22.504;2023-05-18T02:29:00;7.18;;;2.30;;
32946;SDS011;54465;51.230;22.504;2023-05-18T02:34:00;6.05;;;2.10;;
32946;SDS011;54465;51.230;22.504;2023-05-18T02:39:02;7.28;;;2.17;;
32946;SDS011;54465;51.230;22.504;2023-05-18T02:44:06;9.85;;;2.47;;
32946;SDS011;54465;51.230;22.504;2023-05-18T02:49:06;8.63;;;2.42;;
32946;SDS011;54465;51.230;22.504;2023-05-18T02:54:07;3.75;;;2.17;;
32946;SDS011;54465;51.230;22.504;2023-05-18T02:59:10;7.53;;;2.42;;
32946;SDS011;54465;51.230;22.504;2023-05-18T03:04:15;7.88;;;2.58;;
32946;SDS011;54465;51.230;22.504;2023-05-18T03:09:21;9.07;;;1.95;;
32946;SDS011;54465;51.230;22.504;2023-05-18T03:14:23;5.63;;;2.20;;
32946;SDS011;54465;51.230;22.504;2023-05-18T03:19:23;8.23;;;1.85;;
32946;SDS011;54465;51.230;22.504;2023-05-18T03:24:26;6.63;;;1.92;;
32946;SDS011;54465;51.230;22.504;2023-05-18T03:29:30;6.57;;;1.60;;
32946;SDS011;54465;51.230;22.504;2023-05-18T03:34:30;8.38;;;1.67;;
32946;SDS011;54465;51.230;22.504;2023-05-18T03:39:31;3.25;;;1.17;;
32946;SDS011;54465;51.230;22.504;2023-05-18T03:44:32;5.88;;;1.40;;
32946;SDS011;54465;51.230;22.504;2023-05-18T03:49:33;6.88;;;1.13;;
32946;SDS011;54465;51.230;22.504;2023-05-18T03:54:35;4.07;;;0.80;;
32946;SDS011;54465;51.230;22.504;2023-05-18T03:59:35;3.58;;;1.38;;
32946;SDS011;54465;51.230;22.504;2023-05-18T04:04:36;3.00;;;0.90;;
32946;SDS011;54465;51.230;22.504;2023-05-18T04:09:37;3.58;;;1.50;;
32946;SDS011;54465;51.230;22.504;2023-05-18T04:14:38;3.47;;;1.27;;
32946;SDS011;54465;51.230;22.504;2023-05-18T04:19:41;5.95;;;1.13;;
32946;SDS011;54465;51.230;22.504;2023-05-18T04:24:41;5.13;;;1.45;;
32946;SDS011;54465;51.230;22.504;2023-05-18T04:29:44;4.35;;;0.85;;
32946;SDS011;54465;51.230;22.504;2023-05-18T04:34:46;3.63;;;0.80;;
32946;SDS011;54465;51.230;22.504;2023-05-18T04:39:49;4.13;;;1.23;;
32946;SDS011;54465;51.230;22.504;2023-05-18T04:44:51;4.20;;;1.25;;
32946;SDS011;54465;51.230;22.504;2023-05-18T04:49:53;5.22;;;1.30;;
32946;SDS011;54465;51.230;22.504;2023-05-18T04:54:55;7.25;;;1.40;;
32946;SDS011;54465;51.230;22.504;2023-05-18T04:59:55;3.95;;;1.20;;
32946;SDS011;54465;51.230;22.504;2023-05-18T05:04:57;2.58;;;1.00;;
32946;SDS011;54465;51.230;22.504;2023-05-18T05:09:58;6.13;;;1.27;;
32946;SDS011;54465;51.230;22.504;2023-05-18T05:14:58;6.85;;;1.75;;
32946;SDS011;54465;51.230;22.504;2023-05-18T05:19:59;4.00;;;0.95;;
32946;SDS011;54465;51.230;22.504;2023-05-18T05:24:59;1.92;;;1.33;;
32946;SDS011;54465;51.230;22.504;2023-05-18T05:30:00;3.53;;;1.45;;
32946;SDS011;54465;51.230;22.504;2023-05-18T05:35:02;2.95;;;0.90;;
32946;SDS011;54465;51.230;22.504;2023-05-18T05:40:03;3.95;;;1.27;;
32946;SDS011;54465;51.230;22.504;2023-05-18T05:45:09;3.33;;;1.00;;
32946;SDS011;54465;51.230;22.504;2023-05-18T05:50:22;3.97;;;1.05;;
32946;SDS011;54465;51.230;22.504;2023-05-18T05:55:24;6.97;;;1.20;;
32946;SDS011;54465;51.230;22.504;2023-05-18T06:00:25;5.03;;;1.30;;
32946;SDS011;54465;51.230;22.504;2023-05-18T06:05:33;2.35;;;0.98;;
32946;SDS011;54465;51.230;22.504;2023-05-18T06:10:34;7.55;;;1.42;;
32946;SDS011;54465;51.230;22.504;2023-05-18T06:15:35;3.15;;;1.17;;
32946;SDS011;54465;51.230;22.504;2023-05-18T06:20:36;4.35;;;1.05;;
32946;SDS011;54465;51.230;22.504;2023-05-18T06:25:36;3.47;;;1.10;;
32946;SDS011;54465;51.230;22.504;2023-05-18T06:30:50;3.15;;;1.15;;
32946;SDS011;54465;51.230;22.504;2023-05-18T06:36:01;3.75;;;1.13;;
32946;SDS011;54465;51.230;22.504;2023-05-18T06:41:02;5.32;;;1.83;;
32946;SDS011;54465;51.230;22.504;2023-05-18T06:46:02;2.47;;;1.48;;
32946;SDS011;54465;51.230;22.504;2023-05-18T06:51:07;2.92;;;1.05;;
32946;SDS011;54465;51.230;22.504;2023-05-18T06:56:09;5.78;;;1.83;;
32946;SDS011;54465;51.230;22.504;2023-05-18T07:01:13;4.90;;;1.35;;
32946;SDS011;54465;51.230;22.504;2023-05-18T07:06:13;6.05;;;1.40;;
32946;SDS011;54465;51.230;22.504;2023-05-18T07:11:14;6.60;;;1.50;;
32946;SDS011;54465;51.230;22.504;2023-05-18T07:16:14;5.47;;;1.70;;
32946;SDS011;54465;51.230;22.504;2023-05-18T07:21:15;3.95;;;1.08;;
32946;SDS011;54465;51.230;22.504;2023-05-18T07:26:15;5.80;;;1.80;;
32946;SDS011;54465;51.230;22.504;2023-05-18T07:31:16;11.93;;;3.03;;
32946;SDS011;54465;51.230;22.504;2023-05-18T07:36:20;5.45;;;1.90;;
32946;SDS011;54465;51.230;22.504;2023-05-18T07:41:21;8.48;;;1.73;;
32946;SDS011;54465;51.230;22.504;2023-05-18T07:46:22;6.93;;;2.72;;
32946;SDS011;54465;51.230;22.504;2023-05-18T07:51:22;3.30;;;1.35;;
32946;SDS011;54465;51.230;22.504;2023-05-18T07:56:22;3.88;;;1.30;;
32946;SDS011;54465;51.230;22.504;2023-05-18T08:01:24;2.72;;;1.02;;
32946;SDS011;54465;51.230;22.504;2023-05-18T08:06:29;4.20;;;1.13;;
32946;SDS011;54465;51.230;22.504;2023-05-18T08:11:31;2.05;;;1.13;;
32946;SDS011;54465;51.230;22.504;2023-05-18T08:16:31;3.25;;;1.08;;
32946;SDS011;54465;51.230;22.504;2023-05-18T08:21:36;3.75;;;1.10;;
32946;SDS011;54465;51.230;22.504;2023-05-18T08:26:36;3.42;;;1.73;;
32946;SDS011;54465;51.230;22.504;2023-05-18T08:31:37;2.03;;;1.15;;
32946;SDS011;54465;51.230;22.504;2023-05-18T08:36:38;3.78;;;1.15;;
32946;SDS011;54465;51.230;22.504;2023-05-18T08:46:58;5.85;;;1.38;;
32946;SDS011;54465;51.230;22.504;2023-05-18T08:52:01;4.35;;;1.52;;
32946;SDS011;54465;51.230;22.504;2023-05-18T08:57:07;9.07;;;1.50;;
32946;SDS011;54465;51.230;22.504;2023-05-18T09:02:10;6.70;;;1.35;;
32946;SDS011;54465;51.230;22.504;2023-05-18T09:07:12;4.35;;;1.40;;
32946;SDS011;54465;51.230;22.504;2023-05-18T09:12:13;5.57;;;1.63;;
32946;SDS011;54465;51.230;22.504;2023-05-18T09:17:14;8.85;;;2.30;;
32946;SDS011;54465;51.230;22.504;2023-05-18T09:22:14;3.67;;;2.00;;
32946;SDS011;54465;51.230;22.504;2023-05-18T09:27:15;5.72;;;1.45;;
32946;SDS011;54465;51.230;22.504;2023-05-18T09:32:16;3.88;;;1.25;;
32946;SDS011;54465;51.230;22.504;2023-05-18T09:37:17;3.53;;;1.20;;
32946;SDS011;54465;51.230;22.504;2023-05-18T09:42:18;3.47;;;1.50;;
32946;SDS011;54465;51.230;22.504;2023-05-18T09:47:18;2.67;;;1.30;;
32946;SDS011;54465;51.230;22.504;2023-05-18T09:52:19;3.03;;;1.30;;
32946;SDS011;54465;51.230;22.504;2023-05-18T09:57:20;4.13;;;1.75;;
32946;SDS011;54465;51.230;22.504;2023-05-18T10:02:20;3.33;;;1.50;;
32946;SDS011;54465;51.230;22.504;2023-05-18T10:07:24;5.40;;;2.20;;
32946;SDS011;54465;51.230;22.504;2023-05-18T10:12:24;8.60;;;2.35;;
32946;SDS011;54465;51.230;22.504;2023-05-18T10:17:25;7.47;;;2.30;;
32946;SDS011;54465;51.230;22.504;2023-05-18T10:22:26;5.72;;;1.55;;
32946;SDS011;54465;51.230;22.504;2023-05-18T10:27:26;3.90;;;1.73;;
32946;SDS011;54465;51.230;22.504;2023-05-18T10:32:28;6.50;;;1.80;;
32946;SDS011;54465;51.230;22.504;2023-05-18T10:37:29;5.82;;;2.28;;
32946;SDS011;54465;51.230;22.504;2023-05-18T10:42:30;8.85;;;1.85;;
32946;SDS011;54465;51.230;22.504;2023-05-18T10:47:31;5.32;;;2.30;;
32946;SDS011;54465;51.230;22.504;2023-05-18T10:52:32;7.55;;;2.28;;
32946;SDS011;54465;51.230;22.504;2023-05-18T10:57:35;4.10;;;1.98;;
32946;SDS011;54465;51.230;22.504;2023-05-18T11:02:38;4.80;;;2.05;;
32946;SDS011;54465;51.230;22.504;2023-05-18T11:07:41;3.63;;;1.63;;
32946;SDS011;54465;51.230;22.504;2023-05-18T11:12:44;3.88;;;1.75;;
32946;SDS011;54465;51.230;22.504;2023-05-18T11:17:44;6.95;;;2.25;;
32946;SDS011;54465;51.230;22.504;2023-05-18T11:27:58;7.18;;;1.75;;
32946;SDS011;54465;51.230;22.504;2023-05-18T11:38:10;8.63;;;2.87;;
32946;SDS011;54465;51.230;22.504;2023-05-18T11:43:24;7.03;;;2.40;;
32946;SDS011;54465;51.230;22.504;2023-05-18T11:48:25;6.65;;;2.67;;
32946;SDS011;54465;51.230;22.504;2023-05-18T11:53:28;5.93;;;2.30;;
32946;SDS011;54465;51.230;22.504;2023-05-18T11:58:29;5.40;;;2.00;;
32946;SDS011;54465;51.230;22.504;2023-05-18T12:03:29;3.80;;;2.08;;
32946;SDS011;54465;51.230;22.504;2023-05-18T12:08:30;6.28;;;2.42;;
32946;SDS011;54465;51.230;22.504;2023-05-18T12:13:31;5.43;;;2.03;;
32946;SDS011;54465;51.230;22.504;2023-05-18T12:18:32;5.85;;;3.10;;
32946;SDS011;54465;51.230;22.504;2023-05-18T12:23:35;2.42;;;1.55;;
32946;SDS011;54465;51.230;22.504;2023-05-18T12:28:37;4.45;;;2.30;;
32946;SDS011;54465;51.230;22.504;2023-05-18T12:33:38;6.90;;;2.20;;
32946;SDS011;54465;51.230;22.504;2023-05-18T12:38:38;4.10;;;2.50;;
32946;SDS011;54465;51.230;22.504;2023-05-18T12:43:39;7.22;;;2.75;;
32946;SDS011;54465;51.230;22.504;2023-05-18T12:48:44;5.50;;;2.55;;
32946;SDS011;54465;51.230;22.504;2023-05-18T12:53:48;5.55;;;2.70;;
32946;SDS011;54465;51.230;22.504;2023-05-18T12:58:58;5.70;;;3.08;;
32946;SDS011;54465;51.230;22.504;2023-05-18T13:03:59;4.07;;;1.90;;
32946;SDS011;54465;51.230;22.504;2023-05-18T13:09:00;8.07;;;2.65;;
32946;SDS011;54465;51.230;22.504;2023-05-18T13:14:01;5.75;;;2.42;;
32946;SDS011;54465;51.230;22.504;2023-05-18T13:19:07;7.78;;;2.60;;
32946;SDS011;54465;51.230;22.504;2023-05-18T13:24:08;4.90;;;2.58;;
32946;SDS011;54465;51.230;22.504;2023-05-18T13:29:08;4.10;;;2.30;;
32946;SDS011;54465;51.230;22.504;2023-05-18T13:34:09;7.47;;;2.45;;
32946;SDS011;54465;51.230;22.504;2023-05-18T13:39:10;4.30;;;2.60;;
32946;SDS011;54465;51.230;22.504;2023-05-18T13:44:10;8.57;;;2.20;;
32946;SDS011;54465;51.230;22.504;2023-05-18T13:49:13;4.50;;;2.25;;
32946;SDS011;54465;51.230;22.504;2023-05-18T13:54:14;6.78;;;2.72;;
32946;SDS011;54465;51.230;22.504;2023-05-18T13:59:14;3.92;;;2.47;;
32946;SDS011;54465;51.230;22.504;2023-05-18T14:04:18;7.70;;;2.80;;
32946;SDS011;54465;51.230;22.504;2023-05-18T14:09:18;5.03;;;2.08;;
32946;SDS011;54465;51.230;22.504;2023-05-18T14:14:19;5.93;;;2.47;;
32946;SDS011;54465;51.230;22.504;2023-05-18T14:19:19;8.65;;;2.90;;
32946;SDS011;54465;51.230;22.504;2023-05-18T14:24:20;5.13;;;2.05;;
32946;SDS011;54465;51.230;22.504;2023-05-18T14:29:20;5.35;;;2.60;;
32946;SDS011;54465;51.230;22.504;2023-05-18T14:34:21;7.30;;;2.80;;
32946;SDS011;54465;51.230;22.504;2023-05-18T14:39:21;6.32;;;2.58;;
32946;SDS011;54465;51.230;22.504;2023-05-18T14:44:22;5.97;;;2.15;;
32946;SDS011;54465;51.230;22.504;2023-05-18T14:49:22;5.25;;;2.33;;
32946;SDS011;54465;51.230;22.504;2023-05-18T14:54:22;4.45;;;2.60;;
32946;SDS011;54465;51.230;22.504;2023-05-18T14:59:23;4.95;;;2.92;;
32946;SDS011;54465;51.230;22.504;2023-05-18T15:04:23;7.78;;;3.08;;
32946;SDS011;54465;51.230;22.504;2023-05-18T15:09:24;5.40;;;2.72;;
32946;SDS011;54465;51.230;22.504;2023-05-18T15:14:25;5.70;;;3.15;;
32946;SDS011;54465;51.230;22.504;2023-05-18T15:19:25;6.15;;;3.40;;
32946;SDS011;54465;51.230;22.504;2023-05-18T15:24:26;6.68;;;3.20;;
32946;SDS011;54465;51.230;22.504;2023-05-18T15:29:26;13.75;;;3.17;;
32946;SDS011;54465;51.230;22.504;2023-05-18T15:34:27;6.53;;;2.90;;
32946;SDS011;54465;51.230;22.504;2023-05-18T15:39:28;6.30;;;2.70;;
32946;SDS011;54465;51.230;22.504;2023-05-18T15:44:29;6.95;;;2.75;;
32946;SDS011;54465;51.230;22.504;2023-05-18T15:49:30;8.07;;;3.28;;
32946;SDS011;54465;51.230;22.504;2023-05-18T15:54:30;5.95;;;3.42;;
32946;SDS011;54465;51.230;22.504;2023-05-18T15:59:31;8.45;;;3.28;;
32946;SDS011;54465;51.230;22.504;2023-05-18T16:04:31;7.43;;;3.33;;
32946;SDS011;54465;51.230;22.504;2023-05-18T16:09:32;6.43;;;3.78;;
32946;SDS011;54465;51.230;22.504;2023-05-18T16:14:32;7.88;;;4.38;;
32946;SDS011;54465;51.230;22.504;2023-05-18T16:19:32;9.40;;;4.43;;
32946;SDS011;54465;51.230;22.504;2023-05-18T16:24:33;9.30;;;4.75;;
32946;SDS011;54465;51.230;22.504;2023-05-18T16:29:34;7.88;;;5.55;;
32946;SDS011;54465;51.230;22.504;2023-05-18T16:34:34;6.68;;;4.70;;
32946;SDS011;54465;51.230;22.504;2023-05-18T16:39:35;8.27;;;4.47;;
32946;SDS011;54465;51.230;22.504;2023-05-18T16:44:36;7.80;;;4.18;;
32946;SDS011;54465;51.230;22.504;2023-05-18T16:49:36;6.90;;;3.15;;
32946;SDS011;54465;51.230;22.504;2023-05-18T16:54:36;9.50;;;3.72;;
32946;SDS011;54465;51.230;22.504;2023-05-18T16:59:40;7.22;;;3.45;;
32946;SDS011;54465;51.230;22.504;2023-05-18T17:04:40;4.05;;;2.78;;
32946;SDS011;54465;51.230;22.504;2023-05-18T17:09:43;8.52;;;4.00;;
32946;SDS011;54465;51.230;22.504;2023-05-18T17:14:43;6.22;;;3.35;;
32946;SDS011;54465;51.230;22.504;2023-05-18T17:19:44;6.53;;;3.97;;
32946;SDS011;54465;51.230;22.504;2023-05-18T17:24:44;6.88;;;3.42;;
32946;SDS011;54465;51.230;22.504;2023-05-18T17:29:45;5.18;;;3.33;;
32946;SDS011;54465;51.230;22.504;2023-05-18T17:34:45;8.27;;;3.30;;
32946;SDS011;54465;51.230;22.504;2023-05-18T17:39:46;5.13;;;3.95;;
32946;SDS011;54465;51.230;22.504;2023-05-18T17:44:46;7.95;;;4.05;;
32946;SDS011;54465;51.230;22.504;2023-05-18T17:49:46;8.23;;;4.43;;
32946;SDS011;54465;51.230;22.504;2023-05-18T17:54:47;9.68;;;6.20;;
32946;SDS011;54465;51.230;22.504;2023-05-18T17:59:48;15.85;;;5.75;;
32946;SDS011;54465;51.230;22.504;2023-05-18T18:04:49;7.90;;;4.88;;
32946;SDS011;54465;51.230;22.504;2023-05-18T18:09:49;9.15;;;4.60;;
32946;SDS011;54465;51.230;22.504;2023-05-18T18:14:50;6.60;;;4.65;;
32946;SDS011;54465;51.230;22.504;2023-05-18T18:19:50;8.82;;;4.72;;
32946;SDS011;54465;51.230;22.504;2023-05-18T18:24:51;8.30;;;4.72;;
32946;SDS011;54465;51.230;22.504;2023-05-18T18:29:51;5.85;;;4.15;;
32946;SDS011;54465;51.230;22.504;2023-05-18T18:34:52;6.85;;;4.22;;
32946;SDS011;54465;51.230;22.504;2023-05-18T18:39:52;7.63;;;3.85;;
32946;SDS011;54465;51.230;22.504;2023-05-18T18:44:53;6.75;;;4.00;;
32946;SDS011;54465;51.230;22.504;2023-05-18T18:49:55;3.28;;;2.83;;
32946;SDS011;54465;51.230;22.504;2023-05-18T18:54:56;5.80;;;3.22;;
32946;SDS011;54465;51.230;22.504;2023-05-18T18:59:57;5.43;;;3.40;;
32946;SDS011;54465;51.230;22.504;2023-05-18T19:04:58;6.80;;;3.80;;
32946;SDS011;54465;51.230;22.504;2023-05-18T19:09:58;6.10;;;3.72;;
32946;SDS011;54465;51.230;22.504;2023-05-18T19:14:59;7.00;;;3.55;;
32946;SDS011;54465;51.230;22.504;2023-05-18T19:19:59;5.95;;;3.55;;
32946;SDS011;54465;51.230;22.504;2023-05-18T19:25:00;7.90;;;2.90;;
32946;SDS011;54465;51.230;22.504;2023-05-18T19:30:00;6.35;;;3.10;;
32946;SDS011;54465;51.230;22.504;2023-05-18T19:35:04;5.80;;;2.80;;
32946;SDS011;54465;51.230;22.504;2023-05-18T19:40:05;10.30;;;2.78;;
32946;SDS011;54465;51.230;22.504;2023-05-18T19:45:06;6.35;;;2.60;;
32946;SDS011;54465;51.230;22.504;2023-05-18T19:50:08;4.32;;;2.85;;
32946;SDS011;54465;51.230;22.504;2023-05-18T19:55:09;4.18;;;2.28;;
32946;SDS011;54465;51.230;22.504;2023-05-18T20:00:10;4.82;;;2.53;;
32946;SDS011;54465;51.230;22.504;2023-05-18T20:05:13;4.53;;;3.05;;
32946;SDS011;54465;51.230;22.504;2023-05-18T20:10:17;6.35;;;3.20;;
32946;SDS011;54465;51.230;22.504;2023-05-18T20:15:18;9.60;;;2.97;;
32946;SDS011;54465;51.230;22.504;2023-05-18T20:20:18;9.40;;;2.97;;
32946;SDS011;54465;51.230;22.504;2023-05-18T20:25:19;6.35;;;3.00;;
32946;SDS011;54465;51.230;22.504;2023-05-18T20:30:19;4.82;;;3.03;;
32946;SDS011;54465;51.230;22.504;2023-05-18T20:35:20;4.85;;;3.03;;
32946;SDS011;54465;51.230;22.504;2023-05-18T20:40:21;5.53;;;2.53;;
32946;SDS011;54465;51.230;22.504;2023-05-18T20:45:22;5.22;;;2.90;;
32946;SDS011;54465;51.230;22.504;2023-05-18T20:50:28;3.88;;;2.63;;
32946;SDS011;54465;51.230;22.504;2023-05-18T20:55:28;4.43;;;2.90;;
32946;SDS011;54465;51.230;22.504;2023-05-18T21:00:29;4.97;;;2.75;;
32946;SDS011;54465;51.230;22.504;2023-05-18T21:05:30;6.35;;;2.65;;
32946;SDS011;54465;51.230;22.504;2023-05-18T21:10:32;6.63;;;2.80;;
32946;SDS011;54465;51.230;22.504;2023-05-18T21:15:32;5.88;;;3.00;;
32946;SDS011;54465;51.230;22.504;2023-05-18T21:20:35;5.50;;;3.08;;
32946;SDS011;54465;51.230;22.504;2023-05-18T21:25:36;5.90;;;3.30;;
32946;SDS011;54465;51.230;22.504;2023-05-18T21:30:36;5.00;;;3.30;;
32946;SDS011;54465;51.230;22.504;2023-05-18T21:35:37;5.35;;;3.22;;
32946;SDS011;54465;51.230;22.504;2023-05-18T21:40:37;6.75;;;3.17;;
32946;SDS011;54465;51.230;22.504;2023-05-18T21:45:38;4.32;;;2.88;;
32946;SDS011;54465;51.230;22.504;2023-05-18T21:50:38;7.32;;;3.03;;
32946;SDS011;54465;51.230;22.504;2023-05-18T21:55:39;9.18;;;2.90;;
32946;SDS011;54465;51.230;22.504;2023-05-18T22:00:39;3.95;;;2.83;;
32946;SDS011;54465;51.230;22.504;2023-05-18T22:05:40;5.95;;;3.00;;
32946;SDS011;54465;51.230;22.504;2023-05-18T22:10:43;6.07;;;2.90;;
32946;SDS011;54465;51.230;22.504;2023-05-18T22:15:44;3.40;;;2.67;;
32946;SDS011;54465;51.230;22.504;2023-05-18T22:20:45;3.25;;;2.20;;
32946;SDS011;54465;51.230;22.504;2023-05-18T22:25:46;4.53;;;2.38;;
32946;SDS011;54465;51.230;22.504;2023-05-18T22:30:50;6.10;;;2.78;;
32946;SDS011;54465;51.230;22.504;2023-05-18T22:35:51;3.33;;;2.60;;
32946;SDS011;54465;51.230;22.504;2023-05-18T22:40:51;5.30;;;2.60;;
32946;SDS011;54465;51.230;22.504;2023-05-18T22:45:53;5.65;;;2.50;;
32946;SDS011;54465;51.230;22.504;2023-05-18T22:50:53;4.30;;;2.28;;
32946;SDS011;54465;51.230;22.504;2023-05-18T22:55:53;3.90;;;2.70;;
32946;SDS011;54465;51.230;22.504;2023-05-18T23:00:55;4.25;;;2.33;;
32946;SDS011;54465;51.230;22.504;2023-05-18T23:05:56;4.15;;;2.40;;
32946;SDS011;54465;51.230;22.504;2023-05-18T23:10:56;6.60;;;3.08;;
32946;SDS011;54465;51.230;22.504;2023-05-18T23:15:57;3.78;;;2.88;;
32946;SDS011;54465;51.230;22.504;2023-05-18T23:20:59;6.78;;;3.03;;
32946;SDS011;54465;51.230;22.504;2023-05-18T23:26:00;4.18;;;2.53;;
32946;SDS011;54465;51.230;22.504;2023-05-18T23:31:00;3.60;;;2.58;;
32946;SDS011;54465;51.230;22.504;2023-05-18T23:36:01;3.75;;;2.60;;
32946;SDS011;54465;51.230;22.504;2023-05-18T23:41:03;5.47;;;3.10;;
32946;SDS011;54465;51.230;22.504;2023-05-18T23:46:04;5.47;;;2.85;;
32946;SDS011;54465;51.230;22.504;2023-05-18T23:51:05;5.38;;;2.70;;
32946;SDS011;54465;51.230;22.504;2023-05-18T23:56:07;4.80;;;2.63;;
